sensor_id;sensor_type;location;lat;lon;timestamp;temperature;humidity
52787;DHT22;38661;53.152;5.846;2023-05-27T00:02:07;8.80;82.60
52787;DHT22;38661;53.152;5.846;2023-05-27T00:04:33;8.70;82.60
52787;DHT22;38661;53.152;5.846;2023-05-27T00:06:58;8.70;82.70
52787;DHT22;38661;53.152;5.846;2023-05-27T00:09:24;8.70;82.80
52787;DHT22;38661;53.152;5.846;2023-05-27T00:11:50;8.70;82.90
52787;DHT22;38661;53.152;5.846;2023-05-27T00:14:16;8.70;83.30
52787;DHT22;38661;53.152;5.846;2023-05-27T00:16:43;8.60;82.70
52787;DHT22;38661;53.152;5.846;2023-05-27T00:19:08;8.60;82.70
52787;DHT22;38661;53.152;5.846;2023-05-27T00:21:34;8.60;83.20
52787;DHT22;38661;53.152;5.846;2023-05-27T00:24:00;8.50;83.50
52787;DHT22;38661;53.152;5.846;2023-05-27T00:26:26;8.50;83.50
52787;DHT22;38661;53.152;5.846;2023-05-27T00:28:52;8.50;83.50
52787;DHT22;38661;53.152;5.846;2023-05-27T00:31:18;8.50;83.70
52787;DHT22;38661;53.152;5.846;2023-05-27T00:33:44;8.40;83.70
52787;DHT22;38661;53.152;5.846;2023-05-27T00:36:10;8.40;83.90
52787;DHT22;38661;53.152;5.846;2023-05-27T00:38:36;8.40;84.10
52787;DHT22;38661;53.152;5.846;2023-05-27T00:41:03;8.40;84.30
52787;DHT22;38661;53.152;5.846;2023-05-27T00:43:29;8.40;84.30
52787;DHT22;38661;53.152;5.846;2023-05-27T00:45:58;8.30;84.30
52787;DHT22;38661;53.152;5.846;2023-05-27T00:48:24;8.40;84.40
52787;DHT22;38661;53.152;5.846;2023-05-27T00:50:50;8.30;84.40
52787;DHT22;38661;53.152;5.846;2023-05-27T00:53:16;8.30;84.50
52787;DHT22;38661;53.152;5.846;2023-05-27T00:55:43;8.30;84.50
52787;DHT22;38661;53.152;5.846;2023-05-27T00:58:09;8.20;84.50
52787;DHT22;38661;53.152;5.846;2023-05-27T01:00:35;8.30;84.50
52787;DHT22;38661;53.152;5.846;2023-05-27T01:03:07;8.20;84.50
52787;DHT22;38661;53.152;5.846;2023-05-27T01:05:33;8.30;84.50
52787;DHT22;38661;53.152;5.846;2023-05-27T01:10:53;8.30;84.60
52787;DHT22;38661;53.152;5.846;2023-05-27T01:13:39;8.30;84.70
52787;DHT22;38661;53.152;5.846;2023-05-27T01:16:13;8.20;84.70
52787;DHT22;38661;53.152;5.846;2023-05-27T01:18:42;8.20;84.70
52787;DHT22;38661;53.152;5.846;2023-05-27T01:21:15;8.30;85.00
52787;DHT22;38661;53.152;5.846;2023-05-27T01:23:43;8.30;85.00
52787;DHT22;38661;53.152;5.846;2023-05-27T01:26:08;8.20;85.00
52787;DHT22;38661;53.152;5.846;2023-05-27T01:28:35;8.20;85.10
52787;DHT22;38661;53.152;5.846;2023-05-27T01:33:38;8.20;85.00
52787;DHT22;38661;53.152;5.846;2023-05-27T01:36:16;8.10;85.30
52787;DHT22;38661;53.152;5.846;2023-05-27T01:38:43;8.20;85.20
52787;DHT22;38661;53.152;5.846;2023-05-27T01:41:12;8.10;85.20
52787;DHT22;38661;53.152;5.846;2023-05-27T01:43:40;8.10;85.20
52787;DHT22;38661;53.152;5.846;2023-05-27T01:46:06;8.10;85.20
52787;DHT22;38661;53.152;5.846;2023-05-27T01:48:32;8.10;85.20
52787;DHT22;38661;53.152;5.846;2023-05-27T01:50:57;8.10;85.20
52787;DHT22;38661;53.152;5.846;2023-05-27T01:53:23;8.10;85.20
52787;DHT22;38661;53.152;5.846;2023-05-27T01:55:49;8.10;85.20
52787;DHT22;38661;53.152;5.846;2023-05-27T01:58:15;8.10;85.20
52787;DHT22;38661;53.152;5.846;2023-05-27T02:00:40;8.10;85.50
52787;DHT22;38661;53.152;5.846;2023-05-27T02:03:06;8.10;85.10
52787;DHT22;38661;53.152;5.846;2023-05-27T02:05:32;8.10;84.90
52787;DHT22;38661;53.152;5.846;2023-05-27T02:07:58;8.10;84.80
52787;DHT22;38661;53.152;5.846;2023-05-27T02:10:24;8.10;85.20
52787;DHT22;38661;53.152;5.846;2023-05-27T02:12:49;8.10;85.60
52787;DHT22;38661;53.152;5.846;2023-05-27T02:15:15;8.10;86.00
52787;DHT22;38661;53.152;5.846;2023-05-27T02:17:41;8.10;86.00
52787;DHT22;38661;53.152;5.846;2023-05-27T02:20:10;8.10;86.00
52787;DHT22;38661;53.152;5.846;2023-05-27T02:22:36;8.10;86.10
52787;DHT22;38661;53.152;5.846;2023-05-27T02:25:02;8.10;86.10
52787;DHT22;38661;53.152;5.846;2023-05-27T02:27:28;8.00;86.20
52787;DHT22;38661;53.152;5.846;2023-05-27T02:29:53;8.00;86.10
52787;DHT22;38661;53.152;5.846;2023-05-27T02:32:19;8.00;86.30
52787;DHT22;38661;53.152;5.846;2023-05-27T02:34:45;8.00;86.30
52787;DHT22;38661;53.152;5.846;2023-05-27T02:37:10;7.90;86.40
52787;DHT22;38661;53.152;5.846;2023-05-27T02:39:36;7.90;86.50
52787;DHT22;38661;53.152;5.846;2023-05-27T02:42:02;7.90;86.40
52787;DHT22;38661;53.152;5.846;2023-05-27T02:44:28;7.80;86.40
52787;DHT22;38661;53.152;5.846;2023-05-27T02:46:53;7.90;86.40
52787;DHT22;38661;53.152;5.846;2023-05-27T02:49:19;7.90;86.40
52787;DHT22;38661;53.152;5.846;2023-05-27T02:51:45;7.90;86.50
52787;DHT22;38661;53.152;5.846;2023-05-27T02:54:10;7.90;86.50
52787;DHT22;38661;53.152;5.846;2023-05-27T02:56:36;7.90;86.60
52787;DHT22;38661;53.152;5.846;2023-05-27T02:59:02;7.90;86.60
52787;DHT22;38661;53.152;5.846;2023-05-27T03:01:27;7.90;86.50
52787;DHT22;38661;53.152;5.846;2023-05-27T03:03:53;7.80;86.60
52787;DHT22;38661;53.152;5.846;2023-05-27T03:06:18;7.80;86.70
52787;DHT22;38661;53.152;5.846;2023-05-27T03:08:45;7.80;86.70
52787;DHT22;38661;53.152;5.846;2023-05-27T03:11:11;7.80;86.70
52787;DHT22;38661;53.152;5.846;2023-05-27T03:13:37;7.90;87.00
52787;DHT22;38661;53.152;5.846;2023-05-27T03:16:02;7.80;87.00
52787;DHT22;38661;53.152;5.846;2023-05-27T03:18:28;7.90;87.10
52787;DHT22;38661;53.152;5.846;2023-05-27T03:20:54;7.90;87.10
52787;DHT22;38661;53.152;5.846;2023-05-27T03:23:20;7.90;86.90
52787;DHT22;38661;53.152;5.846;2023-05-27T03:25:45;7.90;86.90
52787;DHT22;38661;53.152;5.846;2023-05-27T03:28:11;7.90;86.90
52787;DHT22;38661;53.152;5.846;2023-05-27T03:30:37;7.90;87.00
52787;DHT22;38661;53.152;5.846;2023-05-27T03:33:03;7.80;86.90
52787;DHT22;38661;53.152;5.846;2023-05-27T03:35:29;7.80;86.80
52787;DHT22;38661;53.152;5.846;2023-05-27T03:37:55;7.80;86.70
52787;DHT22;38661;53.152;5.846;2023-05-27T03:40:20;7.80;86.90
52787;DHT22;38661;53.152;5.846;2023-05-27T03:42:46;7.80;86.90
52787;DHT22;38661;53.152;5.846;2023-05-27T03:45:12;7.70;87.00
52787;DHT22;38661;53.152;5.846;2023-05-27T03:47:37;7.70;87.00
52787;DHT22;38661;53.152;5.846;2023-05-27T03:50:03;7.70;87.20
52787;DHT22;38661;53.152;5.846;2023-05-27T03:52:29;7.70;87.10
52787;DHT22;38661;53.152;5.846;2023-05-27T03:54:55;7.70;87.40
52787;DHT22;38661;53.152;5.846;2023-05-27T03:57:20;7.70;87.50
52787;DHT22;38661;53.152;5.846;2023-05-27T03:59:46;7.70;87.50
52787;DHT22;38661;53.152;5.846;2023-05-27T04:02:12;7.80;87.10
52787;DHT22;38661;53.152;5.846;2023-05-27T04:04:37;7.70;87.30
52787;DHT22;38661;53.152;5.846;2023-05-27T04:07:03;7.70;87.30
52787;DHT22;38661;53.152;5.846;2023-05-27T04:09:29;7.70;87.40
52787;DHT22;38661;53.152;5.846;2023-05-27T04:11:55;7.60;87.50
52787;DHT22;38661;53.152;5.846;2023-05-27T04:14:20;7.70;87.70
52787;DHT22;38661;53.152;5.846;2023-05-27T04:16:46;7.70;88.20
52787;DHT22;38661;53.152;5.846;2023-05-27T04:19:12;7.80;88.40
52787;DHT22;38661;53.152;5.846;2023-05-27T04:21:39;7.80;88.40
52787;DHT22;38661;53.152;5.846;2023-05-27T04:24:04;7.80;88.50
52787;DHT22;38661;53.152;5.846;2023-05-27T04:26:30;7.90;88.30
52787;DHT22;38661;53.152;5.846;2023-05-27T04:28:58;8.00;88.60
52787;DHT22;38661;53.152;5.846;2023-05-27T04:31:25;8.10;88.70
52787;DHT22;38661;53.152;5.846;2023-05-27T04:33:54;8.20;88.30
52787;DHT22;38661;53.152;5.846;2023-05-27T04:36:20;8.20;88.50
52787;DHT22;38661;53.152;5.846;2023-05-27T04:38:50;8.30;88.60
52787;DHT22;38661;53.152;5.846;2023-05-27T04:41:16;8.30;88.40
52787;DHT22;38661;53.152;5.846;2023-05-27T04:43:42;8.40;88.50
52787;DHT22;38661;53.152;5.846;2023-05-27T04:46:07;8.40;88.70
52787;DHT22;38661;53.152;5.846;2023-05-27T04:48:33;8.50;88.50
52787;DHT22;38661;53.152;5.846;2023-05-27T04:51:00;8.60;88.50
52787;DHT22;38661;53.152;5.846;2023-05-27T04:53:26;8.60;88.20
52787;DHT22;38661;53.152;5.846;2023-05-27T04:55:52;8.70;88.40
52787;DHT22;38661;53.152;5.846;2023-05-27T04:58:17;8.80;88.40
52787;DHT22;38661;53.152;5.846;2023-05-27T05:00:43;8.80;88.60
52787;DHT22;38661;53.152;5.846;2023-05-27T05:03:16;8.80;88.90
52787;DHT22;38661;53.152;5.846;2023-05-27T05:05:52;9.00;88.80
52787;DHT22;38661;53.152;5.846;2023-05-27T05:08:19;9.10;88.70
52787;DHT22;38661;53.152;5.846;2023-05-27T05:10:48;9.10;88.60
52787;DHT22;38661;53.152;5.846;2023-05-27T05:13:14;9.20;88.80
52787;DHT22;38661;53.152;5.846;2023-05-27T05:15:41;9.20;88.50
52787;DHT22;38661;53.152;5.846;2023-05-27T05:18:12;9.30;88.50
52787;DHT22;38661;53.152;5.846;2023-05-27T05:20:38;9.30;88.90
52787;DHT22;38661;53.152;5.846;2023-05-27T05:23:03;9.40;88.90
52787;DHT22;38661;53.152;5.846;2023-05-27T05:25:29;9.50;88.90
52787;DHT22;38661;53.152;5.846;2023-05-27T05:27:56;9.60;88.80
52787;DHT22;38661;53.152;5.846;2023-05-27T05:30:22;9.70;88.50
52787;DHT22;38661;53.152;5.846;2023-05-27T05:32:48;9.70;88.80
52787;DHT22;38661;53.152;5.846;2023-05-27T05:35:13;9.80;88.60
52787;DHT22;38661;53.152;5.846;2023-05-27T05:37:39;9.90;88.60
52787;DHT22;38661;53.152;5.846;2023-05-27T05:40:05;9.90;88.30
52787;DHT22;38661;53.152;5.846;2023-05-27T05:42:31;10.00;88.40
52787;DHT22;38661;53.152;5.846;2023-05-27T05:44:57;10.00;87.60
52787;DHT22;38661;53.152;5.846;2023-05-27T05:47:23;10.00;87.50
52787;DHT22;38661;53.152;5.846;2023-05-27T05:49:48;10.10;87.20
52787;DHT22;38661;53.152;5.846;2023-05-27T05:52:14;10.20;86.90
52787;DHT22;38661;53.152;5.846;2023-05-27T05:54:40;10.30;86.80
52787;DHT22;38661;53.152;5.846;2023-05-27T05:57:05;10.40;86.80
52787;DHT22;38661;53.152;5.846;2023-05-27T05:59:31;10.50;86.50
52787;DHT22;38661;53.152;5.846;2023-05-27T06:01:57;10.50;86.30
52787;DHT22;38661;53.152;5.846;2023-05-27T06:04:23;10.60;86.30
52787;DHT22;38661;53.152;5.846;2023-05-27T06:06:48;10.70;86.00
52787;DHT22;38661;53.152;5.846;2023-05-27T06:09:14;10.70;85.80
52787;DHT22;38661;53.152;5.846;2023-05-27T06:11:40;10.80;85.50
52787;DHT22;38661;53.152;5.846;2023-05-27T06:14:06;10.90;85.30
52787;DHT22;38661;53.152;5.846;2023-05-27T06:16:33;10.90;85.10
52787;DHT22;38661;53.152;5.846;2023-05-27T06:19:01;11.00;85.00
52787;DHT22;38661;53.152;5.846;2023-05-27T06:21:27;11.00;84.90
52787;DHT22;38661;53.152;5.846;2023-05-27T06:23:55;11.00;84.60
52787;DHT22;38661;53.152;5.846;2023-05-27T06:26:20;11.10;84.60
52787;DHT22;38661;53.152;5.846;2023-05-27T06:28:46;11.20;84.40
52787;DHT22;38661;53.152;5.846;2023-05-27T06:31:12;11.30;84.00
52787;DHT22;38661;53.152;5.846;2023-05-27T06:33:37;11.40;83.80
52787;DHT22;38661;53.152;5.846;2023-05-27T06:36:03;11.50;83.70
52787;DHT22;38661;53.152;5.846;2023-05-27T06:38:29;11.50;82.90
52787;DHT22;38661;53.152;5.846;2023-05-27T06:40:55;11.60;82.90
52787;DHT22;38661;53.152;5.846;2023-05-27T06:43:21;11.60;82.50
52787;DHT22;38661;53.152;5.846;2023-05-27T06:45:46;11.70;82.20
52787;DHT22;38661;53.152;5.846;2023-05-27T06:48:12;11.80;82.50
52787;DHT22;38661;53.152;5.846;2023-05-27T06:50:38;11.80;82.10
52787;DHT22;38661;53.152;5.846;2023-05-27T06:53:04;12.00;82.10
52787;DHT22;38661;53.152;5.846;2023-05-27T06:55:30;12.00;81.10
52787;DHT22;38661;53.152;5.846;2023-05-27T06:57:56;12.00;80.60
52787;DHT22;38661;53.152;5.846;2023-05-27T07:00:21;12.00;80.00
52787;DHT22;38661;53.152;5.846;2023-05-27T07:02:47;12.00;80.40
52787;DHT22;38661;53.152;5.846;2023-05-27T07:05:13;12.00;79.70
52787;DHT22;38661;53.152;5.846;2023-05-27T07:07:38;12.10;79.90
52787;DHT22;38661;53.152;5.846;2023-05-27T07:10:05;12.10;80.40
52787;DHT22;38661;53.152;5.846;2023-05-27T07:12:30;12.20;80.00
52787;DHT22;38661;53.152;5.846;2023-05-27T07:14:56;12.30;79.20
52787;DHT22;38661;53.152;5.846;2023-05-27T07:17:22;12.40;79.60
52787;DHT22;38661;53.152;5.846;2023-05-27T07:19:47;12.40;79.10
52787;DHT22;38661;53.152;5.846;2023-05-27T07:22:13;12.40;79.20
52787;DHT22;38661;53.152;5.846;2023-05-27T07:24:39;12.40;78.90
52787;DHT22;38661;53.152;5.846;2023-05-27T07:27:05;12.50;79.00
52787;DHT22;38661;53.152;5.846;2023-05-27T07:29:32;12.50;79.10
52787;DHT22;38661;53.152;5.846;2023-05-27T07:31:58;12.40;78.70
52787;DHT22;38661;53.152;5.846;2023-05-27T07:34:24;12.50;79.00
52787;DHT22;38661;53.152;5.846;2023-05-27T07:36:49;12.60;79.00
52787;DHT22;38661;53.152;5.846;2023-05-27T07:39:15;12.70;78.80
52787;DHT22;38661;53.152;5.846;2023-05-27T07:41:41;12.80;77.10
52787;DHT22;38661;53.152;5.846;2023-05-27T07:44:06;12.90;77.80
52787;DHT22;38661;53.152;5.846;2023-05-27T07:46:32;12.90;77.80
52787;DHT22;38661;53.152;5.846;2023-05-27T07:48:59;13.00;77.60
52787;DHT22;38661;53.152;5.846;2023-05-27T07:51:25;13.10;77.70
52787;DHT22;38661;53.152;5.846;2023-05-27T07:53:51;13.20;77.60
52787;DHT22;38661;53.152;5.846;2023-05-27T07:56:17;13.30;77.40
52787;DHT22;38661;53.152;5.846;2023-05-27T07:58:42;13.30;77.10
52787;DHT22;38661;53.152;5.846;2023-05-27T08:01:08;13.30;76.10
52787;DHT22;38661;53.152;5.846;2023-05-27T08:03:34;13.40;76.90
52787;DHT22;38661;53.152;5.846;2023-05-27T08:05:59;13.50;76.50
52787;DHT22;38661;53.152;5.846;2023-05-27T08:08:25;13.60;76.50
52787;DHT22;38661;53.152;5.846;2023-05-27T08:10:51;13.70;76.10
52787;DHT22;38661;53.152;5.846;2023-05-27T08:13:17;13.70;75.90
52787;DHT22;38661;53.152;5.846;2023-05-27T08:15:42;13.80;75.90
52787;DHT22;38661;53.152;5.846;2023-05-27T08:18:08;13.90;74.80
52787;DHT22;38661;53.152;5.846;2023-05-27T08:20:34;14.00;74.80
52787;DHT22;38661;53.152;5.846;2023-05-27T08:22:59;13.90;74.10
52787;DHT22;38661;53.152;5.846;2023-05-27T08:25:25;14.00;74.80
52787;DHT22;38661;53.152;5.846;2023-05-27T08:27:53;14.10;74.90
52787;DHT22;38661;53.152;5.846;2023-05-27T08:30:19;14.40;74.90
52787;DHT22;38661;53.152;5.846;2023-05-27T08:32:44;14.50;74.50
52787;DHT22;38661;53.152;5.846;2023-05-27T08:35:10;14.60;74.90
52787;DHT22;38661;53.152;5.846;2023-05-27T08:37:37;14.70;74.50
52787;DHT22;38661;53.152;5.846;2023-05-27T08:40:06;14.80;73.60
52787;DHT22;38661;53.152;5.846;2023-05-27T08:42:33;14.90;72.40
52787;DHT22;38661;53.152;5.846;2023-05-27T08:44:59;15.00;73.20
52787;DHT22;38661;53.152;5.846;2023-05-27T08:47:27;15.00;73.20
52787;DHT22;38661;53.152;5.846;2023-05-27T08:49:53;15.10;72.90
52787;DHT22;38661;53.152;5.846;2023-05-27T08:52:19;15.10;71.30
52787;DHT22;38661;53.152;5.846;2023-05-27T08:54:47;15.20;71.60
52787;DHT22;38661;53.152;5.846;2023-05-27T08:57:16;15.20;71.00
52787;DHT22;38661;53.152;5.846;2023-05-27T08:59:42;15.40;71.50
52787;DHT22;38661;53.152;5.846;2023-05-27T09:02:12;15.40;70.80
52787;DHT22;38661;53.152;5.846;2023-05-27T09:04:56;15.60;72.10
52787;DHT22;38661;53.152;5.846;2023-05-27T09:07:22;15.70;71.10
52787;DHT22;38661;53.152;5.846;2023-05-27T09:09:58;15.70;70.60
52787;DHT22;38661;53.152;5.846;2023-05-27T09:12:24;15.80;70.10
52787;DHT22;38661;53.152;5.846;2023-05-27T09:14:51;16.00;70.70
52787;DHT22;38661;53.152;5.846;2023-05-27T09:17:17;15.90;69.50
52787;DHT22;38661;53.152;5.846;2023-05-27T09:19:44;16.00;69.90
52787;DHT22;38661;53.152;5.846;2023-05-27T09:22:21;16.30;70.30
52787;DHT22;38661;53.152;5.846;2023-05-27T09:24:48;16.40;69.20
52787;DHT22;38661;53.152;5.846;2023-05-27T09:27:15;16.40;67.90
52787;DHT22;38661;53.152;5.846;2023-05-27T09:29:40;16.30;68.60
52787;DHT22;38661;53.152;5.846;2023-05-27T09:32:06;16.40;69.50
52787;DHT22;38661;53.152;5.846;2023-05-27T09:34:39;16.30;69.60
52787;DHT22;38661;53.152;5.846;2023-05-27T09:37:05;16.40;69.70
52787;DHT22;38661;53.152;5.846;2023-05-27T09:39:39;16.50;69.90
52787;DHT22;38661;53.152;5.846;2023-05-27T09:42:05;16.70;69.50
52787;DHT22;38661;53.152;5.846;2023-05-27T09:44:39;16.90;69.40
52787;DHT22;38661;53.152;5.846;2023-05-27T09:47:08;17.00;68.40
52787;DHT22;38661;53.152;5.846;2023-05-27T09:49:37;17.00;69.10
52787;DHT22;38661;53.152;5.846;2023-05-27T09:52:05;17.10;68.20
52787;DHT22;38661;53.152;5.846;2023-05-27T09:54:33;17.30;68.00
52787;DHT22;38661;53.152;5.846;2023-05-27T09:56:59;17.40;67.10
52787;DHT22;38661;53.152;5.846;2023-05-27T09:59:26;17.60;67.50
52787;DHT22;38661;53.152;5.846;2023-05-27T10:01:52;17.70;66.80
52787;DHT22;38661;53.152;5.846;2023-05-27T10:04:19;17.60;66.50
52787;DHT22;38661;53.152;5.846;2023-05-27T10:06:45;17.70;66.50
52787;DHT22;38661;53.152;5.846;2023-05-27T10:09:11;17.60;66.50
52787;DHT22;38661;53.152;5.846;2023-05-27T10:11:40;17.70;66.90
52787;DHT22;38661;53.152;5.846;2023-05-27T10:14:06;17.80;66.70
52787;DHT22;38661;53.152;5.846;2023-05-27T10:16:34;18.00;66.30
52787;DHT22;38661;53.152;5.846;2023-05-27T10:19:00;18.20;65.80
52787;DHT22;38661;53.152;5.846;2023-05-27T10:21:28;18.40;65.90
52787;DHT22;38661;53.152;5.846;2023-05-27T10:23:58;18.50;65.00
52787;DHT22;38661;53.152;5.846;2023-05-27T10:26:58;18.60;64.60
52787;DHT22;38661;53.152;5.846;2023-05-27T10:29:35;18.90;65.30
52787;DHT22;38661;53.152;5.846;2023-05-27T10:32:04;19.00;64.90
52787;DHT22;38661;53.152;5.846;2023-05-27T10:34:37;19.10;64.10
52787;DHT22;38661;53.152;5.846;2023-05-27T10:37:07;19.10;63.00
52787;DHT22;38661;53.152;5.846;2023-05-27T10:39:33;19.00;60.50
52787;DHT22;38661;53.152;5.846;2023-05-27T10:41:58;18.90;62.20
52787;DHT22;38661;53.152;5.846;2023-05-27T10:44:32;19.10;62.70
52787;DHT22;38661;53.152;5.846;2023-05-27T10:47:02;19.20;62.80
52787;DHT22;38661;53.152;5.846;2023-05-27T10:49:32;19.40;62.40
52787;DHT22;38661;53.152;5.846;2023-05-27T10:52:17;19.50;62.00
52787;DHT22;38661;53.152;5.846;2023-05-27T10:54:45;19.60;61.30
52787;DHT22;38661;53.152;5.846;2023-05-27T10:57:12;19.80;60.70
52787;DHT22;38661;53.152;5.846;2023-05-27T10:59:50;19.80;60.20
52787;DHT22;38661;53.152;5.846;2023-05-27T11:02:20;19.90;59.90
52787;DHT22;38661;53.152;5.846;2023-05-27T11:04:48;20.00;60.40
52787;DHT22;38661;53.152;5.846;2023-05-27T11:07:18;20.20;60.90
52787;DHT22;38661;53.152;5.846;2023-05-27T11:12:13;20.40;60.80
52787;DHT22;38661;53.152;5.846;2023-05-27T11:14:42;20.60;60.40
52787;DHT22;38661;53.152;5.846;2023-05-27T11:17:12;20.40;58.70
52787;DHT22;38661;53.152;5.846;2023-05-27T11:19:39;20.40;57.30
52787;DHT22;38661;53.152;5.846;2023-05-27T11:22:09;20.60;58.50
52787;DHT22;38661;53.152;5.846;2023-05-27T11:24:36;20.80;58.10
52787;DHT22;38661;53.152;5.846;2023-05-27T11:27:13;20.80;57.50
52787;DHT22;38661;53.152;5.846;2023-05-27T11:29:40;20.90;55.40
52787;DHT22;38661;53.152;5.846;2023-05-27T11:32:16;21.10;57.40
52787;DHT22;38661;53.152;5.846;2023-05-27T11:34:44;21.30;56.80
52787;DHT22;38661;53.152;5.846;2023-05-27T11:37:10;21.50;56.70
52787;DHT22;38661;53.152;5.846;2023-05-27T11:39:37;21.50;56.70
52787;DHT22;38661;53.152;5.846;2023-05-27T11:42:05;21.50;55.90
52787;DHT22;38661;53.152;5.846;2023-05-27T11:44:34;21.60;56.10
52787;DHT22;38661;53.152;5.846;2023-05-27T11:47:00;21.40;54.20
52787;DHT22;38661;53.152;5.846;2023-05-27T11:49:27;21.20;54.90
52787;DHT22;38661;53.152;5.846;2023-05-27T11:51:57;21.10;54.50
52787;DHT22;38661;53.152;5.846;2023-05-27T11:54:28;21.00;55.50
52787;DHT22;38661;53.152;5.846;2023-05-27T11:56:55;21.30;56.20
52787;DHT22;38661;53.152;5.846;2023-05-27T11:59:22;21.50;56.20
52787;DHT22;38661;53.152;5.846;2023-05-27T12:01:49;21.70;55.60
52787;DHT22;38661;53.152;5.846;2023-05-27T12:04:15;21.50;54.60
52787;DHT22;38661;53.152;5.846;2023-05-27T12:06:42;21.70;55.70
52787;DHT22;38661;53.152;5.846;2023-05-27T12:09:08;21.80;55.10
52787;DHT22;38661;53.152;5.846;2023-05-27T12:11:35;22.00;53.50
52787;DHT22;38661;53.152;5.846;2023-05-27T12:14:01;22.00;54.20
52787;DHT22;38661;53.152;5.846;2023-05-27T12:16:27;22.10;54.30
52787;DHT22;38661;53.152;5.846;2023-05-27T12:18:53;22.00;54.10
52787;DHT22;38661;53.152;5.846;2023-05-27T12:21:19;22.20;54.20
52787;DHT22;38661;53.152;5.846;2023-05-27T12:23:45;22.40;54.40
52787;DHT22;38661;53.152;5.846;2023-05-27T12:26:13;22.40;54.00
52787;DHT22;38661;53.152;5.846;2023-05-27T12:28:39;22.50;53.30
52787;DHT22;38661;53.152;5.846;2023-05-27T12:31:05;22.50;53.60
52787;DHT22;38661;53.152;5.846;2023-05-27T12:33:31;22.60;54.20
52787;DHT22;38661;53.152;5.846;2023-05-27T12:35:57;22.60;54.00
52787;DHT22;38661;53.152;5.846;2023-05-27T12:38:23;22.70;54.80
52787;DHT22;38661;53.152;5.846;2023-05-27T12:40:49;22.90;54.00
52787;DHT22;38661;53.152;5.846;2023-05-27T12:43:15;22.80;53.80
52787;DHT22;38661;53.152;5.846;2023-05-27T12:45:41;22.90;54.00
52787;DHT22;38661;53.152;5.846;2023-05-27T12:48:07;22.90;53.30
52787;DHT22;38661;53.152;5.846;2023-05-27T12:50:32;23.00;52.50
52787;DHT22;38661;53.152;5.846;2023-05-27T12:52:59;23.10;52.50
52787;DHT22;38661;53.152;5.846;2023-05-27T12:55:25;23.20;52.30
52787;DHT22;38661;53.152;5.846;2023-05-27T12:57:52;23.20;51.70
52787;DHT22;38661;53.152;5.846;2023-05-27T13:00:19;23.20;51.80
52787;DHT22;38661;53.152;5.846;2023-05-27T13:02:45;23.30;51.90
52787;DHT22;38661;53.152;5.846;2023-05-27T13:05:15;23.40;52.00
52787;DHT22;38661;53.152;5.846;2023-05-27T13:07:53;23.70;52.30
52787;DHT22;38661;53.152;5.846;2023-05-27T13:10:19;23.70;51.70
52787;DHT22;38661;53.152;5.846;2023-05-27T13:12:47;23.80;52.10
52787;DHT22;38661;53.152;5.846;2023-05-27T13:15:13;23.60;51.30
52787;DHT22;38661;53.152;5.846;2023-05-27T13:17:39;23.90;51.70
52787;DHT22;38661;53.152;5.846;2023-05-27T13:20:05;23.90;51.00
52787;DHT22;38661;53.152;5.846;2023-05-27T13:22:31;23.90;49.80
52787;DHT22;38661;53.152;5.846;2023-05-27T13:24:57;23.90;50.10
52787;DHT22;38661;53.152;5.846;2023-05-27T13:27:22;24.00;51.00
52787;DHT22;38661;53.152;5.846;2023-05-27T13:29:48;24.10;51.50
52787;DHT22;38661;53.152;5.846;2023-05-27T13:32:14;24.30;51.80
52787;DHT22;38661;53.152;5.846;2023-05-27T13:34:40;24.30;52.00
52787;DHT22;38661;53.152;5.846;2023-05-27T13:37:05;24.30;52.40
52787;DHT22;38661;53.152;5.846;2023-05-27T13:39:31;24.40;53.00
52787;DHT22;38661;53.152;5.846;2023-05-27T13:41:58;24.40;51.60
52787;DHT22;38661;53.152;5.846;2023-05-27T13:44:24;24.30;53.50
52787;DHT22;38661;53.152;5.846;2023-05-27T13:46:50;24.30;54.50
52787;DHT22;38661;53.152;5.846;2023-05-27T13:49:16;24.20;53.50
52787;DHT22;38661;53.152;5.846;2023-05-27T13:51:45;24.10;53.00
52787;DHT22;38661;53.152;5.846;2023-05-27T13:54:11;23.90;54.80
52787;DHT22;38661;53.152;5.846;2023-05-27T13:56:38;23.90;54.60
52787;DHT22;38661;53.152;5.846;2023-05-27T13:59:04;23.80;55.00
52787;DHT22;38661;53.152;5.846;2023-05-27T14:01:31;23.80;54.90
52787;DHT22;38661;53.152;5.846;2023-05-27T14:03:58;23.90;54.90
52787;DHT22;38661;53.152;5.846;2023-05-27T14:06:24;24.00;55.50
52787;DHT22;38661;53.152;5.846;2023-05-27T14:08:50;24.10;54.50
52787;DHT22;38661;53.152;5.846;2023-05-27T14:11:17;24.00;53.80
52787;DHT22;38661;53.152;5.846;2023-05-27T14:13:43;24.00;55.20
52787;DHT22;38661;53.152;5.846;2023-05-27T14:16:09;24.00;54.60
52787;DHT22;38661;53.152;5.846;2023-05-27T14:18:35;24.10;55.20
52787;DHT22;38661;53.152;5.846;2023-05-27T14:21:01;24.10;55.20
52787;DHT22;38661;53.152;5.846;2023-05-27T14:23:27;24.10;53.40
52787;DHT22;38661;53.152;5.846;2023-05-27T14:25:53;24.00;54.30
52787;DHT22;38661;53.152;5.846;2023-05-27T14:28:19;24.00;54.80
52787;DHT22;38661;53.152;5.846;2023-05-27T14:30:45;24.00;54.10
52787;DHT22;38661;53.152;5.846;2023-05-27T14:33:11;23.90;53.80
52787;DHT22;38661;53.152;5.846;2023-05-27T14:35:38;23.90;54.70
52787;DHT22;38661;53.152;5.846;2023-05-27T14:38:30;23.90;55.30
52787;DHT22;38661;53.152;5.846;2023-05-27T14:40:55;23.90;55.70
52787;DHT22;38661;53.152;5.846;2023-05-27T14:43:21;24.00;55.00
52787;DHT22;38661;53.152;5.846;2023-05-27T14:45:47;23.90;55.20
52787;DHT22;38661;53.152;5.846;2023-05-27T14:48:13;23.80;55.50
52787;DHT22;38661;53.152;5.846;2023-05-27T14:50:38;23.70;55.70
52787;DHT22;38661;53.152;5.846;2023-05-27T14:53:04;23.80;55.90
52787;DHT22;38661;53.152;5.846;2023-05-27T14:55:30;23.80;55.30
52787;DHT22;38661;53.152;5.846;2023-05-27T14:58:13;23.90;54.70
52787;DHT22;38661;53.152;5.846;2023-05-27T15:00:40;23.80;55.80
52787;DHT22;38661;53.152;5.846;2023-05-27T15:03:06;23.80;56.00
52787;DHT22;38661;53.152;5.846;2023-05-27T15:05:32;23.90;55.60
52787;DHT22;38661;53.152;5.846;2023-05-27T15:07:58;23.80;55.50
52787;DHT22;38661;53.152;5.846;2023-05-27T15:10:24;23.80;55.10
52787;DHT22;38661;53.152;5.846;2023-05-27T15:12:50;23.70;55.50
52787;DHT22;38661;53.152;5.846;2023-05-27T15:15:18;23.60;55.50
52787;DHT22;38661;53.152;5.846;2023-05-27T15:17:45;23.60;55.60
52787;DHT22;38661;53.152;5.846;2023-05-27T15:20:18;23.70;55.50
52787;DHT22;38661;53.152;5.846;2023-05-27T15:22:45;23.70;55.10
52787;DHT22;38661;53.152;5.846;2023-05-27T15:25:11;23.70;55.00
52787;DHT22;38661;53.152;5.846;2023-05-27T15:27:36;23.70;54.80
52787;DHT22;38661;53.152;5.846;2023-05-27T15:30:06;23.60;54.90
52787;DHT22;38661;53.152;5.846;2023-05-27T15:32:32;23.50;55.50
52787;DHT22;38661;53.152;5.846;2023-05-27T15:34:58;23.40;56.10
52787;DHT22;38661;53.152;5.846;2023-05-27T15:37:27;23.20;56.30
52787;DHT22;38661;53.152;5.846;2023-05-27T15:39:52;23.20;56.50
52787;DHT22;38661;53.152;5.846;2023-05-27T15:42:18;23.30;56.50
52787;DHT22;38661;53.152;5.846;2023-05-27T15:44:44;23.10;56.30